Time;durP1;ratioP1;P1;durP2;ratioP2;P2;SDS_P1;SDS_P2;PMS_P1;PMS_P2;Temp;Humidity;BMP_temperature;BMP_pressure;BME280_temperature;BME280_humidity;BME280_pressure;Samples;Min_cycle;Max_cycle;Signal;HPM_P1;HPM_P2
2021/08/16 00:02:09;;;;;;;;;;;;;;;27.42;62.24;100831.34;5088175;28;1930;-70
2021/08/16 00:04:36;;;;;;;;;;;;;;;27.59;61.47;100832.47;5086537;28;782;-69
2021/08/16 00:07:03;;;;;;;;;;;;;;;27.56;62.16;100830.94;5088004;28;1220;-69
2021/08/16 00:09:29;;;;;;;;;;;;;;;27.53;62.25;100836.56;5088078;28;1118;-68
2021/08/16 00:11:57;;;;;;;;;;;;;;;27.62;62.04;100835.72;5088273;28;1177;-68
2021/08/16 00:14:23;;;;;;;;;;;;;;;27.57;62.54;100827.25;5086343;28;998;-68
2021/08/16 00:16:50;;;;;;;;;;;;;;;27.59;62.30;100830.66;5087786;28;1232;-67
2021/08/16 00:19:17;;;;;;;;;;;;;;;27.57;62.41;100821.91;5088132;28;1126;-68
2021/08/16 00:21:44;;;;;;;;;;;;;;;27.53;61.67;100825.03;5089529;28;1930;-70
2021/08/16 00:24:11;;;;;;;;;;;;;;;27.53;62.08;100827.69;5092434;28;932;-70
2021/08/16 00:26:37;;;;;;;;;;;;;;;27.58;62.08;100826.28;5092067;28;1331;-70
2021/08/16 00:29:04;;;;;;;;;;;;;;;27.54;62.03;100827.53;5092212;28;830;-70
2021/08/16 00:31:31;;;;;;;;;;;;;;;27.55;61.96;100834.59;5092114;28;1228;-70
2021/08/16 00:33:57;;;;;;;;;;;;;;;27.59;61.94;100827.13;5091938;28;786;-69
2021/08/16 00:36:24;;;;;;;;;;;;;;;27.55;61.84;100836.41;5092026;28;1228;-68
2021/08/16 00:38:51;;;;;;;;;;;;;;;27.55;62.01;100844.44;5099004;27;1122;-68
2021/08/16 00:41:18;;;;;;;;;;;;;;;27.57;62.03;100837.94;5132667;27;1968;-67
2021/08/16 00:43:45;;;;;;;;;;;;;;;27.62;61.63;100833.03;5132702;27;1163;-68
2021/08/16 00:46:13;;;;;;;;;;;;;;;27.57;61.56;100824.56;5132884;27;1216;-68
2021/08/16 00:48:42;;;;;;;;;;;;;;;27.57;61.33;100832.59;5132890;27;830;-67
2021/08/16 00:51:09;;;;;;;;;;;;;;;27.61;61.15;100827.81;5132903;27;1232;-68
2021/08/16 00:53:36;;;;;;;;;;;;;;;27.60;61.73;100829.63;5132596;27;834;-68
2021/08/16 00:56:04;;;;;;;;;;;;;;;27.61;61.39;100820.63;5132619;27;1224;-67
2021/08/16 00:58:31;;;;;;;;;;;;;;;27.59;61.75;100819.09;5132509;27;716;-68
2021/08/16 01:00:58;;;;;;;;;;;;;;;27.53;61.54;100814.31;5132107;27;1906;-68
2021/08/16 01:03:25;;;;;;;;;;;;;;;27.51;61.85;100824.31;5132160;27;770;-70
2021/08/16 01:05:55;;;;;;;;;;;;;;;27.52;61.63;100818.81;5132363;27;1290;-68
2021/08/16 01:08:22;;;;;;;;;;;;;;;27.55;61.47;100813.19;5132428;27;1199;-69
2021/08/16 01:10:49;;;;;;;;;;;;;;;27.48;61.74;100817.41;5114237;27;1322;-69
2021/08/16 01:13:16;;;;;;;;;;;;;;;27.49;60.68;100812.91;5132817;27;1177;-69
2021/08/16 01:16:02;;;;;;;;;;;;;;;27.54;61.14;100803.47;5147983;27;1298;-69
2021/08/16 01:18:32;;;;;;;;;;;;;;;27.49;60.47;100800.38;5132405;27;1071;-69
2021/08/16 01:21:00;;;;;;;;;;;;;;;27.52;60.78;100801.91;5132185;27;1968;-69
2021/08/16 01:23:26;;;;;;;;;;;;;;;27.51;61.13;100805.59;5114050;27;1028;-69
2021/08/16 01:25:53;;;;;;;;;;;;;;;27.53;61.21;100800.94;5132085;27;1324;-69
2021/08/16 01:28:21;;;;;;;;;;;;;;;27.49;61.37;100800.38;5132259;27;1149;-68
2021/08/16 01:30:56;;;;;;;;;;;;;;;27.50;61.35;100801.22;5132578;27;1306;-68
2021/08/16 01:33:23;;;;;;;;;;;;;;;27.49;61.02;100803.06;5132252;27;841;-68
2021/08/16 01:35:50;;;;;;;;;;;;;;;27.52;61.16;100793.88;5132172;27;1204;-68
2021/08/16 01:38:21;;;;;;;;;;;;;;;27.47;61.30;100801.50;5113404;27;1600;-68
2021/08/16 01:40:48;;;;;;;;;;;;;;;27.52;60.85;100824.16;5131338;27;1905;-68
2021/08/16 01:43:15;;;;;;;;;;;;;;;27.40;61.35;100813.72;5132069;27;1177;-68
2021/08/16 01:45:41;;;;;;;;;;;;;;;27.39;61.87;100812.88;5131499;27;1350;-68
2021/08/16 01:48:08;;;;;;;;;;;;;;;27.41;61.94;100813.59;5113021;27;1300;-68
2021/08/16 01:50:35;;;;;;;;;;;;;;;27.46;61.56;100816.72;5113033;27;1227;-67
2021/08/16 01:53:02;;;;;;;;;;;;;;;27.40;61.84;100814.56;5131764;27;1187;-68
2021/08/16 01:55:29;;;;;;;;;;;;;;;27.47;62.11;100822.91;5131420;27;1283;-67
2021/08/16 01:57:55;;;;;;;;;;;;;;;27.44;62.03;100832.06;5131631;27;1011;-68
2021/08/16 02:00:22;;;;;;;;;;;;;;;27.45;61.09;100833.75;5131271;27;1200;-68
2021/08/16 02:02:49;;;;;;;;;;;;;;;27.45;61.88;100831.06;5131428;27;1909;-69
2021/08/16 02:05:16;;;;;;;;;;;;;;;27.44;62.15;100824.03;5131319;27;1231;-69
2021/08/16 02:07:42;;;;;;;;;;;;;;;27.43;61.93;100822.34;5131240;27;1087;-68
2021/08/16 02:10:09;;;;;;;;;;;;;;;27.46;62.01;100838.13;5131277;27;1204;-65
2021/08/16 02:12:36;;;;;;;;;;;;;;;27.44;61.17;100845.44;5113540;27;1038;-66
2021/08/16 02:15:05;;;;;;;;;;;;;;;27.33;62.39;100840.19;5131703;27;1219;-67
2021/08/16 02:17:32;;;;;;;;;;;;;;;27.40;62.00;100833.28;5146906;27;1069;-67
2021/08/16 02:19:58;;;;;;;;;;;;;;;27.38;62.10;100840.63;5112422;27;1326;-69
2021/08/16 02:22:25;;;;;;;;;;;;;;;27.42;61.71;100847.41;5131346;27;1910;-68
2021/08/16 02:24:52;;;;;;;;;;;;;;;27.41;61.41;100829.66;5130678;27;864;-69
2021/08/16 02:27:18;;;;;;;;;;;;;;;27.40;61.33;100838.66;5112167;27;1259;-69
2021/08/16 02:29:45;;;;;;;;;;;;;;;27.32;62.10;100840.34;5131352;27;853;-69
2021/08/16 02:32:12;;;;;;;;;;;;;;;27.37;61.23;100825.56;5130483;27;1243;-68
2021/08/16 02:34:38;;;;;;;;;;;;;;;27.41;62.23;100835.00;5131047;27;853;-67
2021/08/16 02:37:05;;;;;;;;;;;;;;;27.38;62.57;100832.59;5111903;27;1247;-68
2021/08/16 02:39:32;;;;;;;;;;;;;;;27.40;62.56;100829.78;5130458;27;1600;-68
2021/08/16 02:41:59;;;;;;;;;;;;;;;27.45;62.60;100838.28;5130347;27;1922;-68
2021/08/16 02:44:25;;;;;;;;;;;;;;;27.34;62.61;100833.00;5129754;27;782;-68
2021/08/16 02:46:52;;;;;;;;;;;;;;;27.34;62.62;100830.34;5130203;27;1302;-68
2021/08/16 02:49:19;;;;;;;;;;;;;;;27.23;63.55;100827.81;5130501;27;1095;-68
2021/08/16 02:51:46;;;;;;;;;;;;;;;27.26;63.35;100828.38;5130399;27;1192;-67
2021/08/16 02:54:12;;;;;;;;;;;;;;;27.27;62.58;100821.22;5130505;27;698;-67
2021/08/16 02:56:39;;;;;;;;;;;;;;;27.24;63.50;100816.97;5130287;27;1265;-67
2021/08/16 02:59:06;;;;;;;;;;;;;;;27.35;62.84;100818.66;5111725;27;982;-67
2021/08/16 03:01:33;;;;;;;;;;;;;;;27.29;62.63;100814.72;5130034;27;1992;-67
2021/08/16 03:04:00;;;;;;;;;;;;;;;27.33;63.19;100821.47;5130429;27;1078;-68
2021/08/16 03:06:28;;;;;;;;;;;;;;;27.37;62.82;100824.69;5129985;27;1225;-67
2021/08/16 03:08:56;;;;;;;;;;;;;;;27.30;63.29;100827.09;5129887;27;1192;-68
2021/08/16 03:11:23;;;;;;;;;;;;;;;27.29;63.03;100825.44;5129687;27;1211;-68
2021/08/16 03:13:50;;;;;;;;;;;;;;;27.35;62.79;100830.22;5130103;27;856;-67
2021/08/16 03:16:16;;;;;;;;;;;;;;;27.35;62.78;100819.50;5130041;27;1312;-67
2021/08/16 03:18:43;;;;;;;;;;;;;;;27.26;62.77;100819.50;5129675;27;1016;-68
2021/08/16 03:21:10;;;;;;;;;;;;;;;27.26;62.71;100819.50;5111045;27;1486;-68
2021/08/16 03:23:36;;;;;;;;;;;;;;;27.18;63.23;100817.53;5129486;27;1991;-67
2021/08/16 03:26:03;;;;;;;;;;;;;;;27.20;63.25;100812.03;5129612;27;1341;-66
2021/08/16 03:28:30;;;;;;;;;;;;;;;27.13;63.64;100811.75;5129534;27;820;-68
2021/08/16 03:30:57;;;;;;;;;;;;;;;27.13;62.99;100809.09;5129163;27;1233;-66
2021/08/16 03:33:23;;;;;;;;;;;;;;;27.25;63.23;100815.97;5129383;27;1152;-68
2021/08/16 03:35:50;;;;;;;;;;;;;;;27.24;62.09;100816.97;5110487;27;1322;-68
2021/08/16 03:38:17;;;;;;;;;;;;;;;27.25;62.90;100818.66;5129479;27;1243;-68
2021/08/16 03:40:43;;;;;;;;;;;;;;;27.22;62.44;100823.44;5129623;27;1244;-69
2021/08/16 03:43:10;;;;;;;;;;;;;;;27.22;62.65;100824.28;5129773;27;1991;-70
2021/08/16 03:45:37;;;;;;;;;;;;;;;27.19;63.21;100831.75;5129273;27;1235;-68
2021/08/16 03:48:04;;;;;;;;;;;;;;;27.15;63.42;100839.19;5129583;27;1141;-68
2021/08/16 03:50:31;;;;;;;;;;;;;;;27.13;63.61;100841.16;5129270;27;1212;-67
2021/08/16 03:52:57;;;;;;;;;;;;;;;27.14;63.50;100837.53;5111091;27;1247;-68
2021/08/16 03:55:24;;;;;;;;;;;;;;;27.16;62.96;100840.88;5128583;27;1271;-68
2021/08/16 03:57:51;;;;;;;;;;;;;;;27.15;63.48;100847.22;5129100;27;1053;-68
2021/08/16 04:00:18;;;;;;;;;;;;;;;27.15;63.09;100853.41;5128918;27;1227;-68
2021/08/16 04:02:46;;;;;;;;;;;;;;;27.18;62.92;100846.94;5129272;27;1910;-68
2021/08/16 04:05:13;;;;;;;;;;;;;;;27.15;63.51;100852.56;5128883;27;1228;-68
2021/08/16 04:07:44;;;;;;;;;;;;;;;27.18;62.77;100859.50;5129226;27;1108;-68
2021/08/16 04:10:11;;;;;;;;;;;;;;;27.20;63.03;100847.66;5129228;27;1236;-68
2021/08/16 04:12:38;;;;;;;;;;;;;;;27.14;63.94;100835.69;5144718;27;1150;-68
2021/08/16 04:15:09;;;;;;;;;;;;;;;27.14;64.10;100845.53;5128851;27;1326;-66
2021/08/16 04:17:35;;;;;;;;;;;;;;;27.15;63.88;100849.88;5129233;28;928;-68
2021/08/16 04:20:03;;;;;;;;;;;;;;;27.17;63.14;100850.63;5129115;27;1318;-68
2021/08/16 04:22:30;;;;;;;;;;;;;;;27.13;64.58;100847.38;5116024;28;1970;-67
2021/08/16 04:24:56;;;;;;;;;;;;;;;27.17;64.09;100844.41;5108315;28;1276;-68
2021/08/16 04:27:23;;;;;;;;;;;;;;;27.16;64.47;100851.59;5108662;28;1116;-69
2021/08/16 04:29:50;;;;;;;;;;;;;;;27.14;62.96;100858.91;5108382;28;1054;-68
2021/08/16 04:32:16;;;;;;;;;;;;;;;27.13;61.56;100851.88;5089798;28;1370;-68
2021/08/16 04:34:43;;;;;;;;;;;;;;;27.06;64.32;100848.03;5108480;28;1045;-68
2021/08/16 04:37:10;;;;;;;;;;;;;;;27.00;64.02;100840.56;5108470;28;1299;-69
2021/08/16 04:39:37;;;;;;;;;;;;;;;27.06;62.27;100840.03;5108004;28;1634;-68
2021/08/16 04:42:03;;;;;;;;;;;;;;;27.00;64.71;100848.59;5107721;28;1917;-67
2021/08/16 04:44:30;;;;;;;;;;;;;;;27.06;63.84;100850.72;5107911;28;1123;-68
2021/08/16 04:46:57;;;;;;;;;;;;;;;27.03;64.13;100845.66;5107843;28;1304;-68
2021/08/16 04:49:24;;;;;;;;;;;;;;;27.06;63.82;100845.38;5108005;28;1079;-68
2021/08/16 04:51:50;;;;;;;;;;;;;;;26.94;64.43;100852.69;5108305;28;1184;-67
2021/08/16 04:54:17;;;;;;;;;;;;;;;27.01;63.18;100856.50;5108020;28;885;-69
2021/08/16 04:56:44;;;;;;;;;;;;;;;26.97;63.92;100862.25;5108044;28;1228;-69
2021/08/16 04:59:10;;;;;;;;;;;;;;;26.91;64.46;100865.47;5108348;28;774;-69
2021/08/16 05:01:37;;;;;;;;;;;;;;;26.90;64.40;100866.47;5107900;28;1240;-69
2021/08/16 05:04:05;;;;;;;;;;;;;;;26.97;63.83;100878.28;5107818;28;1919;-69
2021/08/16 05:06:32;;;;;;;;;;;;;;;26.95;64.22;100883.78;5089670;28;1220;-69
2021/08/16 05:09:00;;;;;;;;;;;;;;;26.98;64.38;100885.31;5111541;28;1064;-69
2021/08/16 05:11:27;;;;;;;;;;;;;;;27.00;64.19;100876.19;5093681;28;1305;-69
2021/08/16 05:13:54;;;;;;;;;;;;;;;26.98;64.40;100875.47;5111706;28;860;-69
2021/08/16 05:16:23;;;;;;;;;;;;;;;26.99;64.15;100874.47;5111745;28;1330;-70
2021/08/16 05:18:50;;;;;;;;;;;;;;;27.00;64.33;100884.19;5093188;28;856;-69
2021/08/16 05:21:17;;;;;;;;;;;;;;;26.92;64.76;100886.72;5111367;28;1298;-69
2021/08/16 05:23:44;;;;;;;;;;;;;;;26.98;63.98;100885.31;5111484;28;1988;-69
2021/08/16 05:26:11;;;;;;;;;;;;;;;27.01;64.16;100882.38;5111507;28;1274;-68
2021/08/16 05:28:37;;;;;;;;;;;;;;;26.94;64.64;100889.25;5110671;28;790;-69
2021/08/16 05:31:04;;;;;;;;;;;;;;;26.94;64.65;100886.56;5126435;27;1267;-69
2021/08/16 05:33:31;;;;;;;;;;;;;;;26.88;64.26;100896.00;5126776;27;1130;-69
2021/08/16 05:35:58;;;;;;;;;;;;;;;26.89;64.85;100907.53;5110942;28;1326;-69
2021/08/16 05:38:24;;;;;;;;;;;;;;;26.86;65.06;100897.13;5111105;28;1095;-69
2021/08/16 05:40:51;;;;;;;;;;;;;;;26.92;64.87;100907.25;5110811;28;1261;-69
2021/08/16 05:43:18;;;;;;;;;;;;;;;26.88;64.99;100914.69;5111405;28;1933;-70
2021/08/16 05:45:45;;;;;;;;;;;;;;;26.95;64.52;100907.84;5111263;28;1232;-69
2021/08/16 05:48:11;;;;;;;;;;;;;;;26.99;63.72;100905.75;5111517;28;1012;-69
2021/08/16 05:50:38;;;;;;;;;;;;;;;26.94;63.14;100907.97;5110712;28;1287;-69
2021/08/16 05:53:09;;;;;;;;;;;;;;;26.94;61.39;100910.63;5111602;28;1183;-70
2021/08/16 05:55:35;;;;;;;;;;;;;;;26.93;60.11;100920.47;5110969;28;1172;-70
2021/08/16 05:58:02;;;;;;;;;;;;;;;26.94;59.08;100918.66;5110814;28;1227;-70
2021/08/16 06:00:29;;;;;;;;;;;;;;;26.91;57.85;100929.63;5126384;27;1361;-69
2021/08/16 06:02:55;;;;;;;;;;;;;;;26.86;57.00;100929.19;5111473;28;1991;-70
2021/08/16 06:05:22;;;;;;;;;;;;;;;26.88;56.06;100928.06;5110985;28;1334;-69
2021/08/16 06:07:49;;;;;;;;;;;;;;;26.88;55.34;100932.56;5110916;28;1081;-70
2021/08/16 06:10:16;;;;;;;;;;;;;;;26.82;54.92;100936.63;5109464;28;1616;-72
2021/08/16 06:12:43;;;;;;;;;;;;;;;26.73;54.75;100939.22;5109287;28;1065;-72
2021/08/16 06:15:10;;;;;;;;;;;;;;;26.70;54.29;100934.16;5109432;28;1198;-72
2021/08/16 06:17:38;;;;;;;;;;;;;;;26.83;54.04;100940.16;5108082;28;1244;-71
2021/08/16 06:20:05;;;;;;;;;;;;;;;26.83;53.16;100943.66;5108739;28;1243;-69
2021/08/16 06:22:33;;;;;;;;;;;;;;;26.85;52.61;100946.19;5125964;27;1917;-72
2021/08/16 06:25:00;;;;;;;;;;;;;;;26.80;52.10;100957.31;5091908;28;1365;-73
2021/08/16 06:27:27;;;;;;;;;;;;;;;26.80;52.25;100956.44;5110198;28;1049;-74
2021/08/16 06:29:54;;;;;;;;;;;;;;;26.85;52.08;100959.56;5109053;28;1521;-73
2021/08/16 06:32:20;;;;;;;;;;;;;;;26.81;51.87;100958.97;5109991;28;1090;-71
2021/08/16 06:34:49;;;;;;;;;;;;;;;26.83;51.58;100958.84;5090133;28;786;-72
2021/08/16 06:37:19;;;;;;;;;;;;;;;26.83;50.66;100950.84;5109467;28;1247;-72
2021/08/16 06:39:46;;;;;;;;;;;;;;;26.84;50.82;100960.56;5108712;28;1349;-71
2021/08/16 06:42:13;;;;;;;;;;;;;;;26.79;50.44;100958.25;5090439;28;1941;-71
2021/08/16 06:44:39;;;;;;;;;;;;;;;26.82;50.25;100967.84;5109063;28;991;-71
2021/08/16 06:47:06;;;;;;;;;;;;;;;26.81;49.85;100971.50;5108779;28;1202;-71
2021/08/16 06:49:33;;;;;;;;;;;;;;;26.78;50.22;100980.59;5090580;28;979;-71
2021/08/16 06:52:00;;;;;;;;;;;;;;;26.86;50.35;100974.63;5109097;28;1241;-71
2021/08/16 06:54:26;;;;;;;;;;;;;;;26.82;50.05;100970.50;5108789;28;849;-73
2021/08/16 06:57:00;;;;;;;;;;;;;;;26.83;50.79;100969.53;5091126;28;1389;-69
2021/08/16 06:59:27;;;;;;;;;;;;;;;26.71;51.08;100970.59;5108545;28;1572;-67
2021/08/16 07:01:54;;;;;;;;;;;;;;;26.78;51.34;100969.09;5109783;28;1199;-68
2021/08/16 07:04:21;;;;;;;;;;;;;;;26.76;51.57;100969.19;5109548;28;1909;-68
2021/08/16 07:06:48;;;;;;;;;;;;;;;26.83;51.89;100970.41;5108842;28;1588;-67
2021/08/16 07:09:15;;;;;;;;;;;;;;;26.87;52.29;100979.00;5109266;28;762;-69
2021/08/16 07:11:42;;;;;;;;;;;;;;;26.87;51.61;100971.78;5109606;28;1354;-68
2021/08/16 07:14:08;;;;;;;;;;;;;;;26.82;51.44;100976.72;5109373;28;1534;-69
2021/08/16 07:16:35;;;;;;;;;;;;;;;26.81;51.26;100972.34;5090605;28;1330;-68
2021/08/16 07:19:02;;;;;;;;;;;;;;;26.84;51.17;100968.56;5109223;28;790;-70
2021/08/16 07:21:29;;;;;;;;;;;;;;;26.78;50.81;100974.44;5107599;28;1596;-68
2021/08/16 07:23:55;;;;;;;;;;;;;;;26.92;50.54;100968.75;5108779;28;1913;-69
2021/08/16 07:26:22;;;;;;;;;;;;;;;26.89;50.72;100967.19;5090448;28;1207;-68
2021/08/16 07:28:49;;;;;;;;;;;;;;;26.88;51.08;100960.13;5090528;28;774;-68
2021/08/16 07:31:16;;;;;;;;;;;;;;;26.92;50.87;100960.72;5108489;28;1169;-70
2021/08/16 07:33:42;;;;;;;;;;;;;;;26.99;51.28;100956.53;5108550;28;735;-68
2021/08/16 07:36:09;;;;;;;;;;;;;;;26.99;51.33;100961.88;5108769;28;1193;-67
2021/08/16 07:38:36;;;;;;;;;;;;;;;26.93;51.26;100946.38;5107294;28;1301;-68
2021/08/16 07:41:02;;;;;;;;;;;;;;;27.00;51.28;100950.19;5080024;28;1366;-68
2021/08/16 07:43:32;;;;;;;;;;;;;;;27.00;51.40;100950.19;5078254;28;1922;-70
2021/08/16 07:45:59;;;;;;;;;;;;;;;27.01;51.07;100951.88;5076942;28;1344;-69
2021/08/16 07:48:26;;;;;;;;;;;;;;;26.98;51.44;100954.84;5075760;28;1201;-69
2021/08/16 07:50:52;;;;;;;;;;;;;;;26.99;51.45;100952.00;5076965;28;1240;-69
2021/08/16 07:53:19;;;;;;;;;;;;;;;27.02;51.50;100964.28;5076425;28;1241;-71
2021/08/16 07:55:46;;;;;;;;;;;;;;;27.07;51.95;100968.25;5056989;28;1391;-70
2021/08/16 07:58:14;;;;;;;;;;;;;;;27.12;51.87;100966.00;5078185;28;1364;-69
2021/08/16 08:00:41;;;;;;;;;;;;;;;27.12;51.72;100966.00;5077002;28;1407;-70
2021/08/16 08:03:08;;;;;;;;;;;;;;;27.18;50.99;100964.59;5075655;28;1906;-70
2021/08/16 08:05:35;;;;;;;;;;;;;;;27.11;51.39;100968.81;5075369;28;1291;-71
2021/08/16 08:08:02;;;;;;;;;;;;;;;27.17;51.76;100960.25;5073408;28;1304;-70
2021/08/16 08:10:28;;;;;;;;;;;;;;;27.18;52.65;100964.59;5073499;28;1304;-71
2021/08/16 08:12:57;;;;;;;;;;;;;;;27.18;53.00;100961.91;5082432;28;1351;-70
2021/08/16 08:15:23;;;;;;;;;;;;;;;27.21;52.81;100963.50;5078070;28;1388;-69
2021/08/16 08:17:50;;;;;;;;;;;;;;;27.26;52.91;100964.78;5057531;28;1285;-69
2021/08/16 08:20:18;;;;;;;;;;;;;;;27.26;53.59;100975.47;5076913;28;1387;-71
2021/08/16 08:22:45;;;;;;;;;;;;;;;27.24;53.87;100965.91;5059114;28;1910;-69
2021/08/16 08:25:12;;;;;;;;;;;;;;;27.26;53.90;100979.97;5075352;28;1277;-70
2021/08/16 08:27:38;;;;;;;;;;;;;;;27.26;54.37;100986.16;5076688;28;1359;-70
2021/08/16 08:30:06;;;;;;;;;;;;;;;27.30;54.12;100984.06;5077514;28;1351;-70
2021/08/16 08:32:42;;;;;;;;;;;;;;;27.31;54.03;100983.06;5078319;28;1315;-70
2021/08/16 08:35:09;;;;;;;;;;;;;;;27.34;53.91;100974.78;5090470;28;1335;-69
2021/08/16 08:37:35;;;;;;;;;;;;;;;27.37;54.06;100987.88;5076917;28;1355;-70
2021/08/16 08:40:02;;;;;;;;;;;;;;;27.42;54.17;100991.00;5097709;28;1570;-71
2021/08/16 08:42:29;;;;;;;;;;;;;;;27.48;54.55;100980.59;5107572;28;1322;-68
2021/08/16 08:44:57;;;;;;;;;;;;;;;27.50;54.37;100984.00;5110466;28;1913;-69
2021/08/16 08:47:24;;;;;;;;;;;;;;;27.45;54.20;100991.56;5110579;28;1366;-69
2021/08/16 08:49:50;;;;;;;;;;;;;;;27.43;53.86;100990.03;5100135;28;1362;-71
2021/08/16 08:52:17;;;;;;;;;;;;;;;27.40;53.91;100988.44;5100778;28;1449;-70
2021/08/16 08:54:44;;;;;;;;;;;;;;;27.41;53.96;100974.09;5100251;28;1172;-70
2021/08/16 08:57:31;;;;;;;;;;;;;;;27.43;53.90;100982.84;5103054;28;1347;-71
2021/08/16 08:59:58;;;;;;;;;;;;;;;27.45;53.55;100990.75;5110923;28;1330;-70
2021/08/16 09:02:25;;;;;;;;;;;;;;;27.46;53.45;100989.75;5100223;28;1292;-70
2021/08/16 09:04:56;;;;;;;;;;;;;;;27.46;53.42;100987.06;5082996;28;2029;-70
2021/08/16 09:07:33;;;;;;;;;;;;;;;27.44;53.62;100987.22;5110255;28;1323;-69
2021/08/16 09:10:04;;;;;;;;;;;;;;;27.46;53.87;100981.72;5098319;28;1417;-68
2021/08/16 09:12:37;;;;;;;;;;;;;;;27.46;53.54;100990.59;5097156;28;1517;-70
2021/08/16 09:15:13;;;;;;;;;;;;;;;27.49;53.71;100987.66;5117303;27;1307;-70
2021/08/16 09:17:41;;;;;;;;;;;;;;;27.50;53.43;100988.50;5108139;28;1352;-68
2021/08/16 09:20:19;;;;;;;;;;;;;;;27.49;53.55;100990.31;5082812;28;1807;-69
2021/08/16 09:22:57;;;;;;;;;;;;;;;27.49;53.31;100987.66;5108901;28;1161;-69
2021/08/16 09:25:25;;;;;;;;;;;;;;;27.49;53.21;100987.66;5098545;28;1339;-70
2021/08/16 09:27:52;;;;;;;;;;;;;;;27.51;53.12;100984.84;5133839;27;1326;-69
2021/08/16 09:30:28;;;;;;;;;;;;;;;27.55;52.79;100981.75;5134236;27;1389;-69
2021/08/16 09:32:55;;;;;;;;;;;;;;;27.57;52.95;100979.78;5110281;28;1315;-70
2021/08/16 09:35:22;;;;;;;;;;;;;;;27.58;52.30;100992.16;5109890;28;1334;-71
2021/08/16 09:37:55;;;;;;;;;;;;;;;27.62;52.02;100990.06;5110228;28;1381;-70
2021/08/16 09:40:23;;;;;;;;;;;;;;;27.64;51.90;100980.91;5133154;27;1855;-70
2021/08/16 09:42:55;;;;;;;;;;;;;;;27.65;52.33;100987.13;5109358;28;1335;-70
2021/08/16 09:45:29;;;;;;;;;;;;;;;27.61;52.41;100981.19;5108231;28;1271;-70
2021/08/16 09:48:00;;;;;;;;;;;;;;;27.61;51.99;100997.25;5107376;28;1358;-67
2021/08/16 09:50:55;;;;;;;;;;;;;;;27.75;51.51;100987.13;5095308;27;1731;-66
2021/08/16 09:53:23;;;;;;;;;;;;;;;27.78;52.28;100986.84;5103332;27;1594;-64
2021/08/16 09:55:52;;;;;;;;;;;;;;;27.77;53.00;100991.34;5114288;27;1611;-66
2021/08/16 09:58:19;;;;;;;;;;;;;;;27.77;53.19;100995.84;5097192;28;1684;-65
2021/08/16 10:00:48;;;;;;;;;;;;;;;27.77;53.27;100990.50;5110736;27;1409;-66
2021/08/16 10:03:15;;;;;;;;;;;;;;;27.79;53.46;100991.19;5106865;28;1906;-66
2021/08/16 10:05:44;;;;;;;;;;;;;;;27.78;54.15;100993.06;5105830;28;1350;-66
2021/08/16 10:08:14;;;;;;;;;;;;;;;27.75;54.37;100981.78;5106862;27;1338;-64
2021/08/16 10:10:41;;;;;;;;;;;;;;;27.78;53.58;100984.19;5105660;28;1327;-64
2021/08/16 10:13:09;;;;;;;;;;;;;;;27.82;53.34;100985.56;5095463;28;1281;-67
2021/08/16 10:15:37;;;;;;;;;;;;;;;27.86;53.36;100989.66;5106813;28;1321;-63
2021/08/16 10:18:08;;;;;;;;;;;;;;;27.84;53.58;100980.94;5107689;28;1307;-73
2021/08/16 10:20:36;;;;;;;;;;;;;;;27.85;53.78;100987.97;5108648;28;1314;-73
2021/08/16 10:23:14;;;;;;;;;;;;;;;27.85;54.05;100982.59;5110487;28;1119;-72
2021/08/16 10:25:43;;;;;;;;;;;;;;;27.86;54.33;100978.94;5109975;28;1235;-73
2021/08/16 10:28:10;;;;;;;;;;;;;;;27.84;54.42;100981.78;5091590;28;1361;-69
2021/08/16 10:30:44;;;;;;;;;;;;;;;27.69;53.55;100973.31;5089762;28;1975;-68
2021/08/16 10:33:11;;;;;;;;;;;;;;;27.45;52.71;100972.03;5118028;27;1317;-72
2021/08/16 10:35:39;;;;;;;;;;;;;;;27.35;52.54;100974.66;5115530;27;1367;-69
2021/08/16 10:38:07;;;;;;;;;;;;;;;27.31;52.51;100969.69;5090203;28;1334;-73
2021/08/16 10:40:44;;;;;;;;;;;;;;;27.30;52.31;100976.88;5089607;28;1435;-74
2021/08/16 10:43:13;;;;;;;;;;;;;;;27.20;51.45;100975.16;5108427;28;1901;-73
2021/08/16 10:45:44;;;;;;;;;;;;;;;27.15;51.73;100964.88;5108002;28;1226;-71
2021/08/16 10:48:20;;;;;;;;;;;;;;;27.19;51.82;100958.28;5098405;28;1279;-72
2021/08/16 10:50:47;;;;;;;;;;;;;;;27.03;51.90;100960.59;5070097;28;1314;-73
2021/08/16 10:53:14;;;;;;;;;;;;;;;27.11;51.36;100958.13;5087421;28;1252;-68
2021/08/16 10:55:41;;;;;;;;;;;;;;;27.13;50.96;100958.81;5087328;28;1319;-63
2021/08/16 10:58:08;;;;;;;;;;;;;;;27.07;50.55;100957.53;5088250;28;1194;-61
2021/08/16 11:00:39;;;;;;;;;;;;;;;27.04;50.77;100948.94;5087393;28;1216;-65
2021/08/16 11:03:07;;;;;;;;;;;;;;;27.00;50.30;100945.69;5103018;28;1252;-64
2021/08/16 11:05:38;;;;;;;;;;;;;;;26.96;49.91;100948.78;5087429;28;1901;-64
2021/08/16 11:08:06;;;;;;;;;;;;;;;26.92;51.20;100945.53;5087228;28;1279;-61
2021/08/16 11:10:40;;;;;;;;;;;;;;;26.95;50.47;100939.06;5068896;28;1513;-64
2021/08/16 11:13:17;;;;;;;;;;;;;;;26.95;50.82;100947.09;5087619;28;1245;-62
2021/08/16 11:15:46;;;;;;;;;;;;;;;26.91;51.15;100938.47;5086564;28;1291;-62
2021/08/16 11:18:20;;;;;;;;;;;;;;;26.88;50.49;100935.22;5086527;28;1180;-64
2021/08/16 11:20:57;;;;;;;;;;;;;;;26.82;50.36;100941.13;5102429;28;1342;-64
2021/08/16 11:23:25;;;;;;;;;;;;;;;26.79;50.22;100938.69;5085564;28;1964;-65
2021/08/16 11:25:53;;;;;;;;;;;;;;;26.78;50.02;100932.47;5086370;28;1326;-64
2021/08/16 11:28:20;;;;;;;;;;;;;;;26.83;49.92;100934.81;5086283;28;1081;-65
2021/08/16 11:30:48;;;;;;;;;;;;;;;26.79;49.95;100926.16;5087092;28;1279;-66
2021/08/16 11:33:21;;;;;;;;;;;;;;;26.77;49.80;100925.47;5087369;28;1183;-67
2021/08/16 11:35:48;;;;;;;;;;;;;;;26.74;50.20;100915.06;5087244;28;1255;-63
2021/08/16 11:38:15;;;;;;;;;;;;;;;26.75;50.14;100919.38;5087794;28;1326;-66
2021/08/16 11:40:42;;;;;;;;;;;;;;;26.74;50.22;100914.19;5126586;27;1192;-65
2021/08/16 11:43:08;;;;;;;;;;;;;;;26.72;50.35;100911.66;5143773;27;1271;-67
2021/08/16 11:45:39;;;;;;;;;;;;;;;26.70;50.30;100918.09;5100839;28;1901;-67
2021/08/16 11:48:06;;;;;;;;;;;;;;;26.71;50.25;100926.00;5107334;28;1129;-65
2021/08/16 11:50:33;;;;;;;;;;;;;;;26.67;50.20;100915.72;5106760;28;1281;-66
2021/08/16 11:53:00;;;;;;;;;;;;;;;26.70;50.25;100918.97;5107694;28;1232;-67
2021/08/16 11:55:27;;;;;;;;;;;;;;;26.66;50.29;100916.72;5072379;28;1329;-68
2021/08/16 11:57:55;;;;;;;;;;;;;;;26.67;49.93;100921.06;5107961;28;1144;-66
2021/08/16 12:00:23;;;;;;;;;;;;;;;26.68;49.97;100909.41;5088863;28;1247;-66
2021/08/16 12:02:50;;;;;;;;;;;;;;;26.67;50.13;100913.03;5088582;28;1125;-65
2021/08/16 12:05:17;;;;;;;;;;;;;;;26.67;50.04;100905.03;5107216;28;1993;-66
2021/08/16 12:07:45;;;;;;;;;;;;;;;26.65;49.90;100907.00;5122540;27;1528;-64
2021/08/16 12:10:18;;;;;;;;;;;;;;;26.61;50.09;100903.75;5105923;28;1306;-64
2021/08/16 12:12:55;;;;;;;;;;;;;;;26.65;50.12;100901.66;5105730;28;1518;-64
2021/08/16 12:15:22;;;;;;;;;;;;;;;26.63;50.61;100900.94;5105567;28;1304;-67
2021/08/16 12:17:53;;;;;;;;;;;;;;;26.65;50.43;100898.97;5104829;28;1490;-63
2021/08/16 12:20:20;;;;;;;;;;;;;;;26.63;50.44;100904.44;5105863;28;1325;-62
2021/08/16 12:22:57;;;;;;;;;;;;;;;26.73;50.58;100888.44;5106685;28;1042;-70
2021/08/16 12:25:24;;;;;;;;;;;;;;;26.76;50.34;100890.84;5088168;28;1971;-68
2021/08/16 12:28:02;;;;;;;;;;;;;;;26.84;51.50;100883.06;5107257;28;1133;-71
2021/08/16 12:30:29;;;;;;;;;;;;;;;26.83;51.00;100889.38;5106081;28;1200;-66
2021/08/16 12:33:10;;;;;;;;;;;;;;;26.76;51.04;100890.84;5106726;28;1115;-68
2021/08/16 12:35:36;;;;;;;;;;;;;;;26.83;50.77;100894.72;5105361;28;1494;-64
2021/08/16 12:38:04;;;;;;;;;;;;;;;26.83;51.10;100897.38;5105317;28;1315;-64
2021/08/16 12:40:31;;;;;;;;;;;;;;;26.80;50.51;100898.50;5103872;28;1537;-64
2021/08/16 12:43:01;;;;;;;;;;;;;;;26.70;49.93;100897.59;5103973;28;1597;-63
2021/08/16 12:45:28;;;;;;;;;;;;;;;26.69;49.82;100908.44;5102792;28;1908;-64
2021/08/16 12:47:58;;;;;;;;;;;;;;;26.68;49.54;100898.72;5103916;28;1106;-64
2021/08/16 12:50:25;;;;;;;;;;;;;;;26.68;49.28;100896.88;5104435;28;1291;-63
2021/08/16 12:52:52;;;;;;;;;;;;;;;26.68;49.59;100893.38;5105200;28;1201;-63